Nearby METAR Reports

 

KCXY - Harrisburg, Pennsylvania, USA
Distance from station: E 9mi, 14km
Updated: Sun, 09-May-2021 6:56am EDT
Clear
Clear
 Wind from W
Wind: W 6 mph , 9 km/h
Temperature: 45°F , 7°C
Wind Chill: 42°F , 6°C
Dew Point: 36°F , 2°C
Humidity: 71%
Barometer: 30.11 inHg , 1019.6 hPa
Clouds: Clear
Visibility: 10 miles , 16 km
2021/05/09 10:56 KCXY 091056Z 26005KT 10SM CLR 07/02 A3011 RMK AO2 SLP199 T00720017 $
KMDT - Middletown, Pennsylvania, USA
Distance from station: E 13mi, 21km
Updated: Sun, 09-May-2021 6:56am EDT
Mostly cloudy
Mostly cloudy
 Wind from NW
Wind: NW 6 mph , 9 km/h
Temperature: 46°F , 8°C
Wind Chill: 43°F , 6°C
Dew Point: 36°F , 2°C
Humidity: 66%
Barometer: 30.11 inHg , 1019.6 hPa
Clouds: Mostly cloudy
Visibility: 10 miles , 16 km
Cloud details: Few Clouds 10000 ft
Mostly cloudy 14000 ft
2021/05/09 10:56 KMDT 091056Z 32005KT 10SM FEW100 BKN140 08/02 A3011 RMK AO2 SLP196 T00830017 $
 
KTHV - York, Pennsylvania, USA
Distance from station: SSE 22mi, 36km
Updated: Sun, 09-May-2021 6:53am EDT
Clear
Clear
 Wind from calm
Wind: Calm
Temperature: 43°F , 6°C
Dew Point: 37°F , 3°C
Humidity: 81%
Barometer: 30.11 inHg , 1019.6 hPa
Clouds: Clear
Visibility: 10 miles , 16 km
2021/05/09 10:53 KTHV 091053Z AUTO 00000KT 10SM CLR 06/03 A3011 RMK AO2 SLP198 T00610028
KMUI - Muir Aaf/Indiant, Pennsylvania, USA
Distance from station: ENE 27mi, 44km
Updated: Sun, 09-May-2021 6:56am EDT
Overcast
Overcast
 Wind from calm
Wind: Calm
Temperature: 41°F , 5°C
Dew Point: 41°F , 5°C
Humidity: 100%
Barometer: 30.10 inHg , 1019.3 hPa
Clouds: Overcast
Visibility: 10 miles , 16 km
Cloud details: Overcast 14000 ft
2021/05/09 10:56 KMUI 091056Z AUTO 00000KT 10SM OVC140 05/05 A3010 RMK AO2 SLP198 T00500047
 
KLNS - Lancaster, Pennsylvania, USA
Distance from station: E 38mi, 62km
Updated: Sun, 09-May-2021 6:53am EDT
Clear
Clear
 Wind from W
Wind: W 3 mph , 6 km/h
Temperature: 43°F , 6°C
Dew Point: 37°F , 3°C
Humidity: 81%
Barometer: 30.11 inHg , 1019.6 hPa
Clouds: Clear
Visibility: 10 miles , 16 km
2021/05/09 10:53 KLNS 091053Z 27003KT 10SM CLR 06/03 A3011 RMK AO2 SLP198 T00610028
KRYT - Fountain Dale, Pennsylvania, USA
Distance from station: SSW 40mi, 65km
Updated: Mon, 13-Nov-2017 7:53am EST
NOT Current
Mist, Overcast
Mist, Overcast
 Wind from calm
Wind: Calm
Temperature: 37°F , 3°C
Dew Point: 34°F , 1°C
Humidity: 87%
Barometer: 30.31 inHg , 1026.4 hPa
Summary: Mist
Clouds: Overcast
Visibility: 5 miles , 8 km
Cloud details: Overcast 700 ft
2017/11/13 12:53 KRYT 131253Z AUTO 00000KT 5SM BR OVC007 03/01 A3031 RMK AO2 SLP275 T00280011 TSNO $
 
KSEG - Selinsgrove, Pennsylvania, USA
Distance from station: N 42mi, 67km
Updated: Sun, 09-May-2021 6:53am EDT
Clear
Clear
 Wind from calm
Wind: Calm
Temperature: 37°F , 3°C
Dew Point: 37°F , 3°C
Humidity: 100%
Barometer: 30.11 inHg , 1019.6 hPa
Clouds: Clear
Visibility: 10 miles , 16 km
2021/05/09 10:53 KSEG 091053Z AUTO 00000KT 10SM CLR 03/03 A3011 RMK AO2 SLP199 T00330028
KDMW - Carroll Cnty, Maryland, USA
Distance from station: S 43mi, 69km
Updated: Sun, 09-May-2021 6:55am EDT
Overcast
Overcast
 Wind from WSW
Wind: WSW 5 mph , 7 km/h
Temperature: 45°F , 7°C
Wind Chill: 42°F , 6°C
Dew Point: 39°F , 4°C
Humidity: 81%
Barometer: 30.12 inHg , 1020 hPa
Clouds: Overcast
Visibility: 10 miles , 16 km
Cloud details: Overcast 11000 ft
2021/05/09 10:55 KDMW 091055Z AUTO 24004KT 10SM OVC110 07/04 A3012 RMK AO2 LTG DSNT W
 
KRSP - Camp David, Maryland, USA
Distance from station: SSW 46mi, 74km
Updated: Sun, 09-May-2021 6:54am EDT
Overcast
Overcast
 Wind from W
Wind: W 8 mph , 13 km/h
Temperature: 43°F , 6°C
Wind Chill: 38°F , 3°C
Dew Point: 30°F , -1°C
Humidity: 61%
Barometer: 30.08 inHg , 1018.6 hPa
Clouds: Overcast
Visibility: 10 miles , 16 km
Cloud details: Overcast 8500 ft
2021/05/09 10:54 KRSP 091054Z AUTO 28007KT 240V320 10SM OVC085 06/M01 A3008 RMK AO2 SLP199 T00561006 TSNO PNO $